sensor_id;sensor_type;location;lat;lon;timestamp;P1;durP1;ratioP1;P2;durP2;ratioP2
79009;SDS011;73031;44.726;37.760;2023-10-09T00:00:49;3.22;;;0.93;;
79009;SDS011;73031;44.726;37.760;2023-10-09T00:01:56;2.47;;;0.90;;
79009;SDS011;73031;44.726;37.760;2023-10-09T00:02:59;2.83;;;0.85;;
79009;SDS011;73031;44.726;37.760;2023-10-09T00:04:01;2.50;;;0.90;;
79009;SDS011;73031;44.726;37.760;2023-10-09T00:05:03;2.25;;;0.95;;
79009;SDS011;73031;44.726;37.760;2023-10-09T00:06:11;1.98;;;0.80;;
79009;SDS011;73031;44.726;37.760;2023-10-09T00:07:15;2.88;;;0.90;;
79009;SDS011;73031;44.726;37.760;2023-10-09T00:08:17;3.28;;;0.90;;
79009;SDS011;73031;44.726;37.760;2023-10-09T00:09:22;2.30;;;0.88;;
79009;SDS011;73031;44.726;37.760;2023-10-09T00:10:22;2.25;;;0.70;;
79009;SDS011;73031;44.726;37.760;2023-10-09T00:11:35;1.67;;;0.70;;
79009;SDS011;73031;44.726;37.760;2023-10-09T00:12:42;3.13;;;0.95;;
79009;SDS011;73031;44.726;37.760;2023-10-09T00:13:44;3.28;;;0.90;;
79009;SDS011;73031;44.726;37.760;2023-10-09T00:14:49;3.40;;;0.90;;
79009;SDS011;73031;44.726;37.760;2023-10-09T00:15:56;3.08;;;1.17;;
79009;SDS011;73031;44.726;37.760;2023-10-09T00:17:02;2.30;;;0.80;;
79009;SDS011;73031;44.726;37.760;2023-10-09T00:18:18;1.50;;;0.70;;
79009;SDS011;73031;44.726;37.760;2023-10-09T00:19:28;2.08;;;0.80;;
79009;SDS011;73031;44.726;37.760;2023-10-09T00:20:36;2.78;;;0.90;;
79009;SDS011;73031;44.726;37.760;2023-10-09T00:21:47;3.53;;;0.85;;
79009;SDS011;73031;44.726;37.760;2023-10-09T00:22:48;3.00;;;0.90;;
79009;SDS011;73031;44.726;37.760;2023-10-09T00:23:49;2.83;;;1.00;;
79009;SDS011;73031;44.726;37.760;2023-10-09T00:24:53;2.63;;;0.93;;
79009;SDS011;73031;44.726;37.760;2023-10-09T00:26:11;2.28;;;0.80;;
79009;SDS011;73031;44.726;37.760;2023-10-09T00:27:12;2.28;;;0.80;;
79009;SDS011;73031;44.726;37.760;2023-10-09T00:28:19;1.77;;;0.80;;
79009;SDS011;73031;44.726;37.760;2023-10-09T00:29:22;2.92;;;0.80;;
79009;SDS011;73031;44.726;37.760;2023-10-09T00:30:23;2.08;;;0.75;;
79009;SDS011;73031;44.726;37.760;2023-10-09T00:31:30;2.10;;;0.90;;
79009;SDS011;73031;44.726;37.760;2023-10-09T00:32:33;1.90;;;0.65;;
79009;SDS011;73031;44.726;37.760;2023-10-09T00:33:37;3.45;;;0.82;;
79009;SDS011;73031;44.726;37.760;2023-10-09T00:34:41;3.28;;;0.90;;
79009;SDS011;73031;44.726;37.760;2023-10-09T00:35:43;3.38;;;1.00;;
79009;SDS011;73031;44.726;37.760;2023-10-09T00:36:44;3.15;;;1.10;;
79009;SDS011;73031;44.726;37.760;2023-10-09T00:37:51;2.78;;;0.90;;
79009;SDS011;73031;44.726;37.760;2023-10-09T00:38:57;1.60;;;0.85;;
79009;SDS011;73031;44.726;37.760;2023-10-09T00:40:01;2.22;;;0.65;;
79009;SDS011;73031;44.726;37.760;2023-10-09T00:41:13;3.10;;;1.00;;
79009;SDS011;73031;44.726;37.760;2023-10-09T00:42:20;2.15;;;0.60;;
79009;SDS011;73031;44.726;37.760;2023-10-09T00:43:32;2.28;;;0.82;;
79009;SDS011;73031;44.726;37.760;2023-10-09T00:44:36;1.90;;;0.63;;
79009;SDS011;73031;44.726;37.760;2023-10-09T00:45:42;2.17;;;0.80;;
79009;SDS011;73031;44.726;37.760;2023-10-09T00:46:45;2.28;;;0.90;;
79009;SDS011;73031;44.726;37.760;2023-10-09T00:47:47;1.70;;;0.70;;
79009;SDS011;73031;44.726;37.760;2023-10-09T00:48:58;1.85;;;0.80;;
79009;SDS011;73031;44.726;37.760;2023-10-09T00:50:04;2.25;;;0.80;;
79009;SDS011;73031;44.726;37.760;2023-10-09T00:51:13;2.63;;;0.80;;
79009;SDS011;73031;44.726;37.760;2023-10-09T00:52:19;4.20;;;0.98;;
79009;SDS011;73031;44.726;37.760;2023-10-09T00:53:31;2.92;;;0.88;;
79009;SDS011;73031;44.726;37.760;2023-10-09T00:54:33;3.25;;;0.93;;
79009;SDS011;73031;44.726;37.760;2023-10-09T00:55:41;2.33;;;0.90;;
79009;SDS011;73031;44.726;37.760;2023-10-09T00:57:57;2.88;;;0.90;;
79009;SDS011;73031;44.726;37.760;2023-10-09T00:59:00;2.33;;;0.85;;
79009;SDS011;73031;44.726;37.760;2023-10-09T01:00:08;2.17;;;0.70;;
79009;SDS011;73031;44.726;37.760;2023-10-09T01:01:29;1.88;;;0.73;;
79009;SDS011;73031;44.726;37.760;2023-10-09T01:02:37;3.63;;;1.00;;
79009;SDS011;73031;44.726;37.760;2023-10-09T01:03:42;1.92;;;0.80;;
79009;SDS011;73031;44.726;37.760;2023-10-09T01:04:45;3.55;;;1.05;;
79009;SDS011;73031;44.726;37.760;2023-10-09T01:06:58;2.28;;;0.80;;
79009;SDS011;73031;44.726;37.760;2023-10-09T01:08:17;2.42;;;0.80;;
79009;SDS011;73031;44.726;37.760;2023-10-09T01:09:44;1.75;;;0.77;;
79009;SDS011;73031;44.726;37.760;2023-10-09T01:10:48;2.35;;;0.82;;
79009;SDS011;73031;44.726;37.760;2023-10-09T01:11:52;2.95;;;0.80;;
79009;SDS011;73031;44.726;37.760;2023-10-09T01:13:02;2.20;;;0.90;;
79009;SDS011;73031;44.726;37.760;2023-10-09T01:14:03;2.55;;;0.80;;
79009;SDS011;73031;44.726;37.760;2023-10-09T01:15:07;3.13;;;0.80;;
79009;SDS011;73031;44.726;37.760;2023-10-09T01:16:09;1.65;;;0.70;;
79009;SDS011;73031;44.726;37.760;2023-10-09T01:17:16;2.17;;;0.88;;
79009;SDS011;73031;44.726;37.760;2023-10-09T01:18:29;1.85;;;0.80;;
79009;SDS011;73031;44.726;37.760;2023-10-09T01:19:36;1.70;;;0.70;;
79009;SDS011;73031;44.726;37.760;2023-10-09T01:20:38;1.35;;;0.60;;
79009;SDS011;73031;44.726;37.760;2023-10-09T01:21:46;2.38;;;0.80;;
79009;SDS011;73031;44.726;37.760;2023-10-09T01:22:48;2.65;;;0.80;;
79009;SDS011;73031;44.726;37.760;2023-10-09T01:23:51;1.77;;;0.80;;
79009;SDS011;73031;44.726;37.760;2023-10-09T01:25:12;2.38;;;0.77;;
79009;SDS011;73031;44.726;37.760;2023-10-09T01:26:13;1.77;;;0.63;;
79009;SDS011;73031;44.726;37.760;2023-10-09T01:27:14;3.17;;;0.85;;
79009;SDS011;73031;44.726;37.760;2023-10-09T01:28:16;3.45;;;0.80;;
79009;SDS011;73031;44.726;37.760;2023-10-09T01:29:17;2.58;;;0.90;;
79009;SDS011;73031;44.726;37.760;2023-10-09T01:30:19;3.22;;;1.00;;
79009;SDS011;73031;44.726;37.760;2023-10-09T01:31:21;2.10;;;0.73;;
79009;SDS011;73031;44.726;37.760;2023-10-09T01:32:21;2.28;;;0.70;;
79009;SDS011;73031;44.726;37.760;2023-10-09T01:33:27;2.38;;;0.80;;
79009;SDS011;73031;44.726;37.760;2023-10-09T01:34:30;1.63;;;0.68;;
79009;SDS011;73031;44.726;37.760;2023-10-09T01:35:38;2.20;;;0.70;;
79009;SDS011;73031;44.726;37.760;2023-10-09T01:36:51;1.83;;;0.82;;
79009;SDS011;73031;44.726;37.760;2023-10-09T01:37:56;2.28;;;0.80;;
79009;SDS011;73031;44.726;37.760;2023-10-09T01:39:00;1.80;;;0.70;;
79009;SDS011;73031;44.726;37.760;2023-10-09T01:40:21;2.13;;;0.68;;
79009;SDS011;73031;44.726;37.760;2023-10-09T01:41:37;3.40;;;0.90;;
79009;SDS011;73031;44.726;37.760;2023-10-09T01:42:47;1.33;;;0.60;;
79009;SDS011;73031;44.726;37.760;2023-10-09T01:43:48;2.38;;;0.70;;
79009;SDS011;73031;44.726;37.760;2023-10-09T01:44:52;3.00;;;1.00;;
79009;SDS011;73031;44.726;37.760;2023-10-09T01:45:53;1.52;;;0.70;;
79009;SDS011;73031;44.726;37.760;2023-10-09T01:46:54;2.08;;;0.82;;
79009;SDS011;73031;44.726;37.760;2023-10-09T01:47:57;1.65;;;0.68;;
79009;SDS011;73031;44.726;37.760;2023-10-09T01:48:58;2.83;;;0.95;;
79009;SDS011;73031;44.726;37.760;2023-10-09T01:50:08;1.33;;;0.75;;
79009;SDS011;73031;44.726;37.760;2023-10-09T01:51:20;2.03;;;0.70;;
79009;SDS011;73031;44.726;37.760;2023-10-09T01:52:21;2.88;;;0.80;;
79009;SDS011;73031;44.726;37.760;2023-10-09T01:53:24;3.13;;;0.73;;
79009;SDS011;73031;44.726;37.760;2023-10-09T01:54:29;2.30;;;0.82;;
79009;SDS011;73031;44.726;37.760;2023-10-09T01:55:42;2.15;;;0.80;;
79009;SDS011;73031;44.726;37.760;2023-10-09T01:56:46;2.20;;;0.70;;
79009;SDS011;73031;44.726;37.760;2023-10-09T01:57:52;1.48;;;0.70;;
79009;SDS011;73031;44.726;37.760;2023-10-09T01:58:54;2.10;;;0.70;;
79009;SDS011;73031;44.726;37.760;2023-10-09T01:59:58;2.22;;;0.73;;
79009;SDS011;73031;44.726;37.760;2023-10-09T02:01:00;2.45;;;0.90;;
79009;SDS011;73031;44.726;37.760;2023-10-09T02:02:05;2.30;;;0.85;;
79009;SDS011;73031;44.726;37.760;2023-10-09T02:03:26;4.63;;;0.82;;
79009;SDS011;73031;44.726;37.760;2023-10-09T02:04:29;2.30;;;0.70;;
79009;SDS011;73031;44.726;37.760;2023-10-09T02:05:30;2.42;;;0.80;;
79009;SDS011;73031;44.726;37.760;2023-10-09T02:06:36;2.25;;;0.90;;
79009;SDS011;73031;44.726;37.760;2023-10-09T02:07:38;2.05;;;0.73;;
79009;SDS011;73031;44.726;37.760;2023-10-09T02:08:52;2.83;;;0.95;;
79009;SDS011;73031;44.726;37.760;2023-10-09T02:09:56;2.28;;;0.65;;
79009;SDS011;73031;44.726;37.760;2023-10-09T02:10:58;2.45;;;0.85;;
79009;SDS011;73031;44.726;37.760;2023-10-09T02:11:59;2.13;;;0.80;;
79009;SDS011;73031;44.726;37.760;2023-10-09T02:13:04;2.58;;;0.75;;
79009;SDS011;73031;44.726;37.760;2023-10-09T02:14:12;1.92;;;0.60;;
79009;SDS011;73031;44.726;37.760;2023-10-09T02:15:19;2.65;;;0.80;;
79009;SDS011;73031;44.726;37.760;2023-10-09T02:16:41;3.10;;;0.80;;
79009;SDS011;73031;44.726;37.760;2023-10-09T02:17:42;2.10;;;0.70;;
79009;SDS011;73031;44.726;37.760;2023-10-09T02:18:52;1.73;;;0.70;;
79009;SDS011;73031;44.726;37.760;2023-10-09T02:19:54;1.98;;;0.77;;
79009;SDS011;73031;44.726;37.760;2023-10-09T02:22:02;2.15;;;0.80;;
79009;SDS011;73031;44.726;37.760;2023-10-09T02:23:13;1.80;;;0.80;;
79009;SDS011;73031;44.726;37.760;2023-10-09T02:24:17;1.88;;;0.80;;
79009;SDS011;73031;44.726;37.760;2023-10-09T02:25:40;1.48;;;0.70;;
79009;SDS011;73031;44.726;37.760;2023-10-09T02:26:44;2.47;;;0.80;;
79009;SDS011;73031;44.726;37.760;2023-10-09T02:27:54;2.45;;;0.80;;
79009;SDS011;73031;44.726;37.760;2023-10-09T02:28:55;2.33;;;0.85;;
79009;SDS011;73031;44.726;37.760;2023-10-09T02:29:59;2.05;;;0.68;;
79009;SDS011;73031;44.726;37.760;2023-10-09T02:31:09;1.80;;;0.70;;
79009;SDS011;73031;44.726;37.760;2023-10-09T02:32:12;1.95;;;0.70;;
79009;SDS011;73031;44.726;37.760;2023-10-09T02:33:26;1.77;;;0.82;;
79009;SDS011;73031;44.726;37.760;2023-10-09T02:34:31;1.90;;;0.85;;
79009;SDS011;73031;44.726;37.760;2023-10-09T02:35:38;2.28;;;0.80;;
79009;SDS011;73031;44.726;37.760;2023-10-09T02:36:43;3.13;;;0.80;;
79009;SDS011;73031;44.726;37.760;2023-10-09T02:37:49;2.05;;;0.80;;
79009;SDS011;73031;44.726;37.760;2023-10-09T02:38:50;2.50;;;0.88;;
79009;SDS011;73031;44.726;37.760;2023-10-09T02:39:54;2.22;;;0.88;;
79009;SDS011;73031;44.726;37.760;2023-10-09T02:40:55;2.28;;;0.73;;
79009;SDS011;73031;44.726;37.760;2023-10-09T02:42:03;2.17;;;0.80;;
79009;SDS011;73031;44.726;37.760;2023-10-09T02:43:13;2.60;;;0.90;;
79009;SDS011;73031;44.726;37.760;2023-10-09T02:44:18;1.50;;;0.70;;
79009;SDS011;73031;44.726;37.760;2023-10-09T02:45:25;2.40;;;0.73;;
79009;SDS011;73031;44.726;37.760;2023-10-09T02:46:30;3.03;;;0.90;;
79009;SDS011;73031;44.726;37.760;2023-10-09T02:47:31;2.65;;;0.70;;
79009;SDS011;73031;44.726;37.760;2023-10-09T02:48:38;1.60;;;0.70;;
79009;SDS011;73031;44.726;37.760;2023-10-09T02:49:43;1.55;;;0.60;;
79009;SDS011;73031;44.726;37.760;2023-10-09T02:50:44;3.58;;;0.80;;
79009;SDS011;73031;44.726;37.760;2023-10-09T02:51:46;1.73;;;0.70;;
79009;SDS011;73031;44.726;37.760;2023-10-09T02:52:53;2.50;;;0.80;;
79009;SDS011;73031;44.726;37.760;2023-10-09T02:54:03;2.80;;;0.85;;
79009;SDS011;73031;44.726;37.760;2023-10-09T02:55:08;1.90;;;0.80;;
79009;SDS011;73031;44.726;37.760;2023-10-09T02:56:14;2.47;;;0.88;;
79009;SDS011;73031;44.726;37.760;2023-10-09T02:57:18;3.42;;;1.05;;
79009;SDS011;73031;44.726;37.760;2023-10-09T02:58:29;2.85;;;0.85;;
79009;SDS011;73031;44.726;37.760;2023-10-09T02:59:33;1.83;;;0.80;;
79009;SDS011;73031;44.726;37.760;2023-10-09T03:00:35;1.20;;;0.60;;
79009;SDS011;73031;44.726;37.760;2023-10-09T03:01:38;3.95;;;0.90;;
79009;SDS011;73031;44.726;37.760;2023-10-09T03:02:41;2.78;;;1.00;;
79009;SDS011;73031;44.726;37.760;2023-10-09T03:03:42;2.63;;;0.80;;
79009;SDS011;73031;44.726;37.760;2023-10-09T03:04:47;2.33;;;0.82;;
79009;SDS011;73031;44.726;37.760;2023-10-09T03:05:48;2.25;;;0.80;;
79009;SDS011;73031;44.726;37.760;2023-10-09T03:06:50;1.70;;;0.80;;
79009;SDS011;73031;44.726;37.760;2023-10-09T03:07:51;2.10;;;0.95;;
79009;SDS011;73031;44.726;37.760;2023-10-09T03:08:53;2.20;;;0.90;;
79009;SDS011;73031;44.726;37.760;2023-10-09T03:09:55;2.42;;;0.80;;
79009;SDS011;73031;44.726;37.760;2023-10-09T03:10:56;2.58;;;0.80;;
79009;SDS011;73031;44.726;37.760;2023-10-09T03:12:02;3.33;;;0.90;;
79009;SDS011;73031;44.726;37.760;2023-10-09T03:13:04;1.75;;;0.75;;
79009;SDS011;73031;44.726;37.760;2023-10-09T03:14:06;2.10;;;0.90;;
79009;SDS011;73031;44.726;37.760;2023-10-09T03:15:07;2.65;;;0.90;;
79009;SDS011;73031;44.726;37.760;2023-10-09T03:16:09;2.58;;;1.00;;
79009;SDS011;73031;44.726;37.760;2023-10-09T03:17:15;1.85;;;0.80;;
79009;SDS011;73031;44.726;37.760;2023-10-09T03:18:16;2.65;;;1.10;;
79009;SDS011;73031;44.726;37.760;2023-10-09T03:19:17;2.17;;;0.98;;
79009;SDS011;73031;44.726;37.760;2023-10-09T03:20:18;2.78;;;1.02;;
79009;SDS011;73031;44.726;37.760;2023-10-09T03:21:20;2.28;;;0.85;;
79009;SDS011;73031;44.726;37.760;2023-10-09T03:22:21;1.80;;;0.80;;
79009;SDS011;73031;44.726;37.760;2023-10-09T03:23:22;1.92;;;0.80;;
79009;SDS011;73031;44.726;37.760;2023-10-09T03:24:26;2.03;;;0.60;;
79009;SDS011;73031;44.726;37.760;2023-10-09T03:25:33;4.22;;;1.25;;
79009;SDS011;73031;44.726;37.760;2023-10-09T03:26:35;2.03;;;0.80;;
79009;SDS011;73031;44.726;37.760;2023-10-09T03:27:38;2.72;;;1.00;;
79009;SDS011;73031;44.726;37.760;2023-10-09T03:28:42;2.17;;;0.80;;
79009;SDS011;73031;44.726;37.760;2023-10-09T03:29:45;2.08;;;1.08;;
79009;SDS011;73031;44.726;37.760;2023-10-09T03:31:51;3.08;;;1.00;;
79009;SDS011;73031;44.726;37.760;2023-10-09T03:32:53;3.75;;;1.10;;
79009;SDS011;73031;44.726;37.760;2023-10-09T03:33:55;3.95;;;1.10;;
79009;SDS011;73031;44.726;37.760;2023-10-09T03:34:56;2.88;;;1.02;;
79009;SDS011;73031;44.726;37.760;2023-10-09T03:36:00;4.60;;;1.38;;
79009;SDS011;73031;44.726;37.760;2023-10-09T03:37:01;4.15;;;1.30;;
79009;SDS011;73031;44.726;37.760;2023-10-09T03:38:05;4.85;;;1.30;;
79009;SDS011;73031;44.726;37.760;2023-10-09T03:39:12;4.00;;;1.30;;
79009;SDS011;73031;44.726;37.760;2023-10-09T03:40:32;4.53;;;1.20;;
79009;SDS011;73031;44.726;37.760;2023-10-09T03:41:34;6.03;;;1.40;;
79009;SDS011;73031;44.726;37.760;2023-10-09T03:42:42;4.85;;;1.48;;
79009;SDS011;73031;44.726;37.760;2023-10-09T03:43:44;4.55;;;1.50;;
79009;SDS011;73031;44.726;37.760;2023-10-09T03:44:47;5.07;;;1.85;;
79009;SDS011;73031;44.726;37.760;2023-10-09T03:45:58;4.40;;;1.50;;
79009;SDS011;73031;44.726;37.760;2023-10-09T03:47:00;5.05;;;1.38;;
79009;SDS011;73031;44.726;37.760;2023-10-09T03:48:02;6.53;;;1.88;;
79009;SDS011;73031;44.726;37.760;2023-10-09T03:49:15;8.18;;;1.70;;
79009;SDS011;73031;44.726;37.760;2023-10-09T03:50:23;3.47;;;1.27;;
79009;SDS011;73031;44.726;37.760;2023-10-09T03:51:27;9.40;;;2.00;;
79009;SDS011;73031;44.726;37.760;2023-10-09T03:52:30;12.35;;;1.90;;
79009;SDS011;73031;44.726;37.760;2023-10-09T03:53:31;11.95;;;2.10;;
79009;SDS011;73031;44.726;37.760;2023-10-09T03:54:33;11.68;;;2.03;;
79009;SDS011;73031;44.726;37.760;2023-10-09T03:55:36;12.55;;;1.90;;
79009;SDS011;73031;44.726;37.760;2023-10-09T03:56:41;23.92;;;3.17;;
79009;SDS011;73031;44.726;37.760;2023-10-09T03:57:42;21.30;;;2.60;;
79009;SDS011;73031;44.726;37.760;2023-10-09T03:58:47;24.17;;;2.28;;
79009;SDS011;73031;44.726;37.760;2023-10-09T03:59:50;21.67;;;2.53;;
79009;SDS011;73031;44.726;37.760;2023-10-09T04:00:52;28.10;;;3.20;;
79009;SDS011;73031;44.726;37.760;2023-10-09T04:01:55;19.88;;;2.78;;
79009;SDS011;73031;44.726;37.760;2023-10-09T04:02:58;10.32;;;2.60;;
79009;SDS011;73031;44.726;37.760;2023-10-09T04:04:00;16.25;;;2.90;;
79009;SDS011;73031;44.726;37.760;2023-10-09T04:05:02;10.07;;;2.30;;
79009;SDS011;73031;44.726;37.760;2023-10-09T04:06:03;9.70;;;2.20;;
79009;SDS011;73031;44.726;37.760;2023-10-09T04:07:05;20.80;;;7.55;;
79009;SDS011;73031;44.726;37.760;2023-10-09T04:08:07;15.32;;;6.90;;
79009;SDS011;73031;44.726;37.760;2023-10-09T04:09:14;11.70;;;5.32;;
79009;SDS011;73031;44.726;37.760;2023-10-09T04:10:21;20.40;;;9.38;;
79009;SDS011;73031;44.726;37.760;2023-10-09T04:11:41;23.42;;;13.18;;
79009;SDS011;73031;44.726;37.760;2023-10-09T04:12:46;36.65;;;18.25;;
79009;SDS011;73031;44.726;37.760;2023-10-09T04:13:53;21.63;;;12.52;;
79009;SDS011;73031;44.726;37.760;2023-10-09T04:14:55;32.75;;;19.17;;
79009;SDS011;73031;44.726;37.760;2023-10-09T04:16:02;34.10;;;18.88;;
79009;SDS011;73031;44.726;37.760;2023-10-09T04:17:23;36.08;;;17.33;;
79009;SDS011;73031;44.726;37.760;2023-10-09T04:18:30;26.77;;;13.10;;
79009;SDS011;73031;44.726;37.760;2023-10-09T04:19:33;23.13;;;12.07;;
79009;SDS011;73031;44.726;37.760;2023-10-09T04:21:00;32.67;;;17.85;;
79009;SDS011;73031;44.726;37.760;2023-10-09T04:22:19;27.42;;;13.52;;
79009;SDS011;73031;44.726;37.760;2023-10-09T04:23:27;20.92;;;11.50;;
79009;SDS011;73031;44.726;37.760;2023-10-09T04:24:57;18.98;;;10.38;;
79009;SDS011;73031;44.726;37.760;2023-10-09T04:25:58;18.10;;;9.88;;
79009;SDS011;73031;44.726;37.760;2023-10-09T04:27:00;16.58;;;9.20;;
79009;SDS011;73031;44.726;37.760;2023-10-09T04:28:03;18.35;;;9.40;;
79009;SDS011;73031;44.726;37.760;2023-10-09T04:29:10;13.80;;;7.63;;
79009;SDS011;73031;44.726;37.760;2023-10-09T04:30:19;16.45;;;7.50;;
79009;SDS011;73031;44.726;37.760;2023-10-09T04:31:20;17.30;;;8.52;;
79009;SDS011;73031;44.726;37.760;2023-10-09T04:32:22;17.45;;;7.13;;
79009;SDS011;73031;44.726;37.760;2023-10-09T04:33:25;9.65;;;4.22;;
79009;SDS011;73031;44.726;37.760;2023-10-09T04:34:32;17.55;;;7.32;;
79009;SDS011;73031;44.726;37.760;2023-10-09T04:35:48;15.70;;;4.72;;
79009;SDS011;73031;44.726;37.760;2023-10-09T04:37:09;15.60;;;3.10;;
79009;SDS011;73031;44.726;37.760;2023-10-09T04:38:29;15.20;;;2.85;;
79009;SDS011;73031;44.726;37.760;2023-10-09T04:39:34;9.65;;;3.13;;
79009;SDS011;73031;44.726;37.760;2023-10-09T04:40:37;8.90;;;3.00;;
79009;SDS011;73031;44.726;37.760;2023-10-09T04:41:41;8.02;;;2.67;;
79009;SDS011;73031;44.726;37.760;2023-10-09T04:42:42;9.10;;;2.97;;
79009;SDS011;73031;44.726;37.760;2023-10-09T04:43:59;11.20;;;2.55;;
79009;SDS011;73031;44.726;37.760;2023-10-09T04:45:19;7.53;;;2.42;;
79009;SDS011;73031;44.726;37.760;2023-10-09T04:46:25;8.18;;;2.28;;
79009;SDS011;73031;44.726;37.760;2023-10-09T04:47:36;9.02;;;2.30;;
79009;SDS011;73031;44.726;37.760;2023-10-09T04:48:38;8.90;;;2.13;;
79009;SDS011;73031;44.726;37.760;2023-10-09T04:49:39;7.50;;;2.17;;
79009;SDS011;73031;44.726;37.760;2023-10-09T04:50:49;14.60;;;2.78;;
79009;SDS011;73031;44.726;37.760;2023-10-09T04:52:21;9.55;;;2.75;;
79009;SDS011;73031;44.726;37.760;2023-10-09T04:53:31;7.78;;;2.30;;
79009;SDS011;73031;44.726;37.760;2023-10-09T04:54:39;9.15;;;2.20;;
79009;SDS011;73031;44.726;37.760;2023-10-09T04:56:00;5.85;;;2.33;;
79009;SDS011;73031;44.726;37.760;2023-10-09T04:57:12;8.23;;;2.30;;
79009;SDS011;73031;44.726;37.760;2023-10-09T04:58:18;6.95;;;2.28;;
79009;SDS011;73031;44.726;37.760;2023-10-09T04:59:24;10.20;;;2.33;;
79009;SDS011;73031;44.726;37.760;2023-10-09T05:00:26;10.15;;;3.33;;
79009;SDS011;73031;44.726;37.760;2023-10-09T05:01:28;10.27;;;4.85;;
79009;SDS011;73031;44.726;37.760;2023-10-09T05:02:44;10.40;;;4.47;;
79009;SDS011;73031;44.726;37.760;2023-10-09T05:03:55;9.75;;;4.68;;
79009;SDS011;73031;44.726;37.760;2023-10-09T05:04:57;12.88;;;4.90;;
79009;SDS011;73031;44.726;37.760;2023-10-09T05:06:37;12.18;;;5.10;;
79009;SDS011;73031;44.726;37.760;2023-10-09T05:07:55;15.02;;;4.75;;
79009;SDS011;73031;44.726;37.760;2023-10-09T05:08:57;10.93;;;4.18;;
79009;SDS011;73031;44.726;37.760;2023-10-09T05:10:08;10.27;;;3.85;;
79009;SDS011;73031;44.726;37.760;2023-10-09T05:11:16;10.75;;;4.55;;
79009;SDS011;73031;44.726;37.760;2023-10-09T05:12:53;69.57;;;37.80;;
79009;SDS011;73031;44.726;37.760;2023-10-09T05:14:01;100.82;;;59.80;;
79009;SDS011;73031;44.726;37.760;2023-10-09T05:15:14;46.75;;;28.75;;
79009;SDS011;73031;44.726;37.760;2023-10-09T05:16:16;30.27;;;17.58;;
79009;SDS011;73031;44.726;37.760;2023-10-09T05:17:27;19.95;;;12.18;;
79009;SDS011;73031;44.726;37.760;2023-10-09T05:18:28;19.58;;;11.00;;
79009;SDS011;73031;44.726;37.760;2023-10-09T05:19:36;18.08;;;9.55;;
79009;SDS011;73031;44.726;37.760;2023-10-09T05:20:55;13.95;;;7.97;;
79009;SDS011;73031;44.726;37.760;2023-10-09T05:21:58;13.80;;;7.95;;
79009;SDS011;73031;44.726;37.760;2023-10-09T05:23:08;13.65;;;6.72;;
79009;SDS011;73031;44.726;37.760;2023-10-09T05:24:29;13.38;;;6.65;;
79009;SDS011;73031;44.726;37.760;2023-10-09T05:25:44;13.77;;;6.18;;
79009;SDS011;73031;44.726;37.760;2023-10-09T05:28:12;11.00;;;4.50;;
79009;SDS011;73031;44.726;37.760;2023-10-09T05:29:31;10.20;;;4.90;;
79009;SDS011;73031;44.726;37.760;2023-10-09T05:30:48;12.80;;;4.47;;
79009;SDS011;73031;44.726;37.760;2023-10-09T05:31:55;12.70;;;5.13;;
79009;SDS011;73031;44.726;37.760;2023-10-09T05:32:57;11.75;;;4.60;;
79009;SDS011;73031;44.726;37.760;2023-10-09T05:33:58;9.95;;;4.43;;
79009;SDS011;73031;44.726;37.760;2023-10-09T05:35:01;10.13;;;4.53;;
79009;SDS011;73031;44.726;37.760;2023-10-09T05:36:03;12.35;;;4.57;;
79009;SDS011;73031;44.726;37.760;2023-10-09T05:37:28;9.45;;;4.45;;
79009;SDS011;73031;44.726;37.760;2023-10-09T05:38:34;9.25;;;4.10;;
79009;SDS011;73031;44.726;37.760;2023-10-09T05:39:45;8.65;;;3.85;;
79009;SDS011;73031;44.726;37.760;2023-10-09T05:41:06;10.93;;;3.50;;
79009;SDS011;73031;44.726;37.760;2023-10-09T05:42:27;14.13;;;3.65;;
79009;SDS011;73031;44.726;37.760;2023-10-09T05:43:50;7.70;;;3.60;;
79009;SDS011;73031;44.726;37.760;2023-10-09T05:45:20;10.32;;;3.75;;
79009;SDS011;73031;44.726;37.760;2023-10-09T05:46:59;9.65;;;3.50;;
79009;SDS011;73031;44.726;37.760;2023-10-09T05:48:18;13.90;;;3.58;;
79009;SDS011;73031;44.726;37.760;2023-10-09T05:49:19;10.70;;;3.50;;
79009;SDS011;73031;44.726;37.760;2023-10-09T05:50:25;7.75;;;3.42;;
79009;SDS011;73031;44.726;37.760;2023-10-09T05:51:31;8.13;;;2.88;;
79009;SDS011;73031;44.726;37.760;2023-10-09T05:54:03;8.85;;;3.22;;
79009;SDS011;73031;44.726;37.760;2023-10-09T05:55:33;10.77;;;3.10;;
79009;SDS011;73031;44.726;37.760;2023-10-09T05:56:52;11.07;;;3.78;;
79009;SDS011;73031;44.726;37.760;2023-10-09T05:58:12;11.30;;;3.92;;
79009;SDS011;73031;44.726;37.760;2023-10-09T05:59:45;12.30;;;3.05;;
79009;SDS011;73031;44.726;37.760;2023-10-09T06:01:06;16.67;;;3.15;;
79009;SDS011;73031;44.726;37.760;2023-10-09T06:02:26;15.10;;;3.38;;
79009;SDS011;73031;44.726;37.760;2023-10-09T06:03:59;9.35;;;3.03;;
79009;SDS011;73031;44.726;37.760;2023-10-09T06:05:20;8.68;;;2.83;;
79009;SDS011;73031;44.726;37.760;2023-10-09T06:06:41;8.30;;;3.42;;
79009;SDS011;73031;44.726;37.760;2023-10-09T06:07:47;18.52;;;3.30;;
79009;SDS011;73031;44.726;37.760;2023-10-09T06:09:05;8.30;;;2.33;;
79009;SDS011;73031;44.726;37.760;2023-10-09T06:10:16;7.90;;;2.40;;
79009;SDS011;73031;44.726;37.760;2023-10-09T06:11:38;6.88;;;2.35;;
79009;SDS011;73031;44.726;37.760;2023-10-09T06:12:40;7.13;;;2.28;;
79009;SDS011;73031;44.726;37.760;2023-10-09T06:13:43;5.70;;;2.00;;
79009;SDS011;73031;44.726;37.760;2023-10-09T06:14:47;9.65;;;2.83;;
79009;SDS011;73031;44.726;37.760;2023-10-09T06:15:59;6.43;;;2.28;;
79009;SDS011;73031;44.726;37.760;2023-10-09T06:17:20;5.53;;;2.30;;
79009;SDS011;73031;44.726;37.760;2023-10-09T06:18:24;9.90;;;2.40;;
79009;SDS011;73031;44.726;37.760;2023-10-09T06:19:33;6.15;;;2.10;;
79009;SDS011;73031;44.726;37.760;2023-10-09T06:20:43;8.48;;;2.13;;
79009;SDS011;73031;44.726;37.760;2023-10-09T06:22:17;12.60;;;3.08;;
79009;SDS011;73031;44.726;37.760;2023-10-09T06:23:36;6.70;;;2.30;;
79009;SDS011;73031;44.726;37.760;2023-10-09T06:25:04;9.13;;;2.80;;
79009;SDS011;73031;44.726;37.760;2023-10-09T06:26:12;7.30;;;2.60;;
79009;SDS011;73031;44.726;37.760;2023-10-09T06:27:34;11.75;;;2.95;;
79009;SDS011;73031;44.726;37.760;2023-10-09T06:28:35;10.43;;;3.13;;
79009;SDS011;73031;44.726;37.760;2023-10-09T06:29:40;11.63;;;3.30;;
79009;SDS011;73031;44.726;37.760;2023-10-09T06:30:49;12.93;;;3.47;;
79009;SDS011;73031;44.726;37.760;2023-10-09T06:31:50;17.35;;;5.88;;
79009;SDS011;73031;44.726;37.760;2023-10-09T06:33:18;56.03;;;40.20;;
79009;SDS011;73031;44.726;37.760;2023-10-09T06:34:30;51.92;;;32.20;;
79009;SDS011;73031;44.726;37.760;2023-10-09T06:35:46;22.63;;;14.55;;
79009;SDS011;73031;44.726;37.760;2023-10-09T06:36:57;15.77;;;8.43;;
79009;SDS011;73031;44.726;37.760;2023-10-09T06:38:04;12.13;;;6.50;;
79009;SDS011;73031;44.726;37.760;2023-10-09T06:39:24;10.27;;;4.72;;
79009;SDS011;73031;44.726;37.760;2023-10-09T06:40:47;10.52;;;4.55;;
79009;SDS011;73031;44.726;37.760;2023-10-09T06:41:54;13.95;;;4.53;;
79009;SDS011;73031;44.726;37.760;2023-10-09T06:43:10;12.88;;;3.63;;
79009;SDS011;73031;44.726;37.760;2023-10-09T06:44:27;10.88;;;3.00;;
79009;SDS011;73031;44.726;37.760;2023-10-09T06:45:49;9.32;;;3.20;;
79009;SDS011;73031;44.726;37.760;2023-10-09T06:46:56;10.57;;;3.42;;
79009;SDS011;73031;44.726;37.760;2023-10-09T06:48:00;9.15;;;3.92;;
79009;SDS011;73031;44.726;37.760;2023-10-09T06:49:30;15.40;;;4.68;;